Terminal Aerodrome Forecast
Issued by NWS

Home | Current Version | Previous Version | Graphics & Text | Print | Product List | Glossary On
Versions: 1 2 3 4 5 6 7 8 9 10 11 12
000
FTUS43 KTOP 161723
TAFFOE
TAF
KFOE 161723Z 1618/1718 21009KT P6SM SKC
     FM170600 19007KT P6SM FEW250 WS005/22035KT
     FM171400 21009KT P6SM SKC=

USA.gov is the U.S. government's official web portal to all federal, state and local government web resources and services.